Time;durP1;ratioP1;P1;durP2;ratioP2;P2;SDS_P1;SDS_P2;PMS_P1;PMS_P2;Temp;Humidity;BMP_temperature;BMP_pressure;BME280_temperature;BME280_humidity;BME280_pressure;Samples;Min_cycle;Max_cycle;Signal;HPM_P1;HPM_P2
2022/06/07 00:00:52;;;;;;;0.03;0.03;;;11.90;99.90;;;;;;4993527;28;20519;-79
2022/06/07 00:03:19;;;;;;;1.02;1.00;;;11.80;99.90;;;;;;4990807;28;20078;-79
2022/06/07 00:05:45;;;;;;;0.00;0.00;;;11.80;99.90;;;;;;4978294;28;20504;-79
2022/06/07 00:08:12;;;;;;;0.00;0.00;;;11.80;99.90;;;;;;4976605;28;20112;-79
2022/06/07 00:10:38;;;;;;;0.73;0.73;;;11.80;99.90;;;;;;4971864;28;20120;-79
2022/06/07 00:13:05;;;;;;;0.65;0.65;;;11.80;99.90;;;;;;4967777;28;20089;-79
2022/06/07 00:15:31;;;;;;;0.10;0.10;;;11.90;99.90;;;;;;4994006;28;20116;-81
2022/06/07 00:17:57;;;;;;;0.17;0.17;;;11.90;99.90;;;;;;4978535;28;20177;-81
2022/06/07 00:20:22;;;;;;;0.20;0.20;;;11.90;99.90;;;;;;4977432;28;20065;-82
2022/06/07 00:22:48;;;;;;;0.20;0.20;;;11.90;99.90;;;;;;4988694;28;20054;-82
2022/06/07 00:25:15;;;;;;;0.20;0.20;;;11.80;99.90;;;;;;4977406;28;20062;-82
2022/06/07 00:27:42;;;;;;;0.00;0.00;;;11.90;99.90;;;;;;4978600;28;20132;-82
2022/06/07 00:30:08;;;;;;;0.10;0.10;;;11.80;99.90;;;;;;4990293;28;20045;-82
2022/06/07 00:32:34;;;;;;;0.20;0.20;;;11.90;99.90;;;;;;4994602;28;20061;-92
2022/06/07 00:35:00;;;;;;;0.20;0.20;;;11.90;99.90;;;;;;4996603;28;20394;-91
2022/06/07 00:37:26;;;;;;;0.28;0.20;;;12.00;99.90;;;;;;4981592;28;20081;-93
2022/06/07 00:39:52;;;;;;;0.00;0.00;;;11.90;99.90;;;;;;4997804;28;20401;-93
2022/06/07 00:42:18;;;;;;;0.47;0.47;;;11.90;99.90;;;;;;4959281;28;20065;-92
2022/06/07 00:44:46;;;;;;;0.65;0.60;;;11.90;99.90;;;;;;5005250;28;20048;-92
2022/06/07 00:47:24;;;;;;;0.08;0.08;;;12.70;99.90;;;;;;4988667;28;20133;-92
2022/06/07 00:49:55;;;;;;;0.00;0.00;;;11.90;99.90;;;;;;4992380;28;20137;-79
2022/06/07 00:52:27;;;;;;;0.20;0.20;;;12.00;99.90;;;;;;4990185;28;20484;-79
2022/06/07 00:54:54;;;;;;;0.10;0.10;;;11.90;99.90;;;;;;4987678;28;20050;-79
2022/06/07 00:57:20;;;;;;;3.25;0.63;;;11.90;99.90;;;;;;4976965;28;20125;-79
2022/06/07 00:59:46;;;;;;;0.25;0.25;;;12.00;99.90;;;;;;4971773;28;20121;-79
2022/06/07 01:02:13;;;;;;;0.47;0.47;;;12.00;99.90;;;;;;4986522;28;20049;-79
2022/06/07 01:04:39;;;;;;;0.35;0.35;;;12.00;99.90;;;;;;4984153;28;20066;-79
2022/06/07 01:12:35;;;;;;;0.52;0.52;;;12.00;99.90;;;;;;4987690;28;20038;-82
2022/06/07 01:15:03;;;;;;;0.35;0.32;;;12.00;99.90;;;;;;4973856;28;20043;-82
2022/06/07 01:17:29;;;;;;;0.30;0.30;;;12.00;99.90;;;;;;4989430;28;20038;-82
2022/06/07 01:19:54;;;;;;;0.38;0.35;;;12.00;99.90;;;;;;4993247;28;20057;-82
2022/06/07 01:22:21;;;;;;;0.35;0.35;;;12.10;99.90;;;;;;4961464;28;20062;-84
2022/06/07 01:24:47;;;;;;;0.30;0.30;;;12.10;99.90;;;;;;4975625;28;20481;-85
2022/06/07 01:27:13;;;;;;;0.60;0.57;;;12.10;99.90;;;;;;4973994;28;20816;-84
2022/06/07 01:29:39;;;;;;;0.00;0.00;;;12.10;99.90;;;;;;4993217;28;20042;-84
2022/06/07 01:32:05;;;;;;;0.20;0.20;;;12.10;99.90;;;;;;4993012;28;20046;-84
2022/06/07 01:34:32;;;;;;;0.00;0.00;;;12.10;99.90;;;;;;4994834;28;20045;-92
2022/06/07 01:36:59;;;;;;;1.17;0.98;;;12.10;99.90;;;;;;4980483;28;20038;-91
2022/06/07 01:42:11;;;;;;;2.63;0.85;;;12.20;99.90;;;;;;4993142;28;20054;-85
2022/06/07 01:44:38;;;;;;;0.20;0.20;;;12.20;99.90;;;;;;4978338;28;20047;-84
2022/06/07 01:47:07;;;;;;;0.17;0.17;;;12.20;99.90;;;;;;4973793;28;20121;-83
2022/06/07 01:49:33;;;;;;;0.28;0.28;;;12.20;99.90;;;;;;4996530;28;20034;-83
2022/06/07 01:51:59;;;;;;;0.28;0.28;;;12.20;99.90;;;;;;4980710;28;20042;-84
2022/06/07 01:54:25;;;;;;;0.30;0.25;;;12.20;99.90;;;;;;4992658;28;20093;-85
2022/06/07 01:56:51;;;;;;;0.20;0.20;;;12.20;99.90;;;;;;4993608;28;20046;-82
2022/06/07 01:59:18;;;;;;;0.65;0.65;;;12.20;99.90;;;;;;4979971;28;20057;-82
2022/06/07 02:01:45;;;;;;;0.15;0.15;;;12.30;99.90;;;;;;4979675;28;20125;-81
2022/06/07 02:04:11;;;;;;;1.55;0.30;;;12.50;99.90;;;;;;4994754;28;20053;-81
2022/06/07 02:06:38;;;;;;;0.57;0.57;;;12.20;99.90;;;;;;4979610;28;20042;-81
2022/06/07 02:09:06;;;;;;;0.20;0.20;;;12.30;99.90;;;;;;4996877;28;20045;-82
2022/06/07 02:11:32;;;;;;;0.52;0.52;;;12.30;99.90;;;;;;4980135;28;20050;-81
2022/06/07 02:13:58;;;;;;;0.50;0.50;;;12.30;99.90;;;;;;5000588;28;20039;-79
2022/06/07 02:16:24;;;;;;;0.30;0.30;;;12.40;99.90;;;;;;4995657;28;20117;-79
2022/06/07 02:18:51;;;;;;;0.40;0.40;;;12.40;99.90;;;;;;4994585;28;20037;-79
2022/06/07 02:21:18;;;;;;;0.38;0.38;;;12.50;99.90;;;;;;4995234;28;20064;-79
2022/06/07 02:23:44;;;;;;;1.35;0.75;;;12.50;99.90;;;;;;4992726;28;20077;-79
2022/06/07 02:26:27;;;;;;;1.08;0.65;;;12.40;99.90;;;;;;4994868;28;20481;-79
2022/06/07 02:28:56;;;;;;;0.15;0.15;;;12.40;99.90;;;;;;4985026;28;20039;-90
2022/06/07 02:31:25;;;;;;;0.50;0.50;;;12.40;99.90;;;;;;4984163;28;20042;-93
2022/06/07 02:33:53;;;;;;;1.23;0.82;;;12.40;99.90;;;;;;4983578;28;20424;-91
2022/06/07 02:36:19;;;;;;;0.93;0.85;;;12.50;99.90;;;;;;4999840;28;20042;-90
2022/06/07 02:38:46;;;;;;;0.22;0.22;;;12.40;99.90;;;;;;4982770;28;20096;-91
2022/06/07 02:41:16;;;;;;;1.13;0.45;;;12.40;99.90;;;;;;4998050;28;20046;-82
2022/06/07 02:43:42;;;;;;;0.95;0.45;;;12.50;99.90;;;;;;4979807;28;20046;-81
2022/06/07 02:46:08;;;;;;;0.20;0.20;;;12.50;99.90;;;;;;4996095;28;20392;-84
2022/06/07 02:48:33;;;;;;;23.42;0.80;;;12.50;99.90;;;;;;4979427;28;20050;-85
2022/06/07 02:50:59;;;;;;;11.07;1.48;;;12.40;99.90;;;;;;5000691;28;20038;-84
2022/06/07 02:53:25;;;;;;;0.40;0.40;;;12.50;99.90;;;;;;4983812;28;20038;-85
2022/06/07 02:55:50;;;;;;;1.50;1.40;;;12.50;99.90;;;;;;4969134;28;20046;-84
2022/06/07 02:58:16;;;;;;;0.35;0.35;;;12.50;99.90;;;;;;4995924;28;20130;-84
2022/06/07 03:00:42;;;;;;;0.90;0.90;;;12.60;99.90;;;;;;4979048;28;20460;-84
2022/06/07 03:03:09;;;;;;;0.63;0.63;;;12.60;99.90;;;;;;4979135;28;20049;-85
2022/06/07 03:05:34;;;;;;;0.10;0.10;;;12.50;99.90;;;;;;4979383;28;20035;-84
2022/06/07 03:08:00;;;;;;;0.20;0.20;;;12.60;99.90;;;;;;4978923;28;20048;-85
2022/06/07 03:10:26;;;;;;;0.20;0.20;;;12.60;99.90;;;;;;4961822;28;20043;-84
2022/06/07 03:12:51;;;;;;;0.75;0.75;;;12.60;99.90;;;;;;4963246;28;20049;-84
2022/06/07 03:15:17;;;;;;;0.00;0.00;;;12.40;99.90;;;;;;4987242;28;20053;-84
2022/06/07 03:17:45;;;;;;;0.73;0.73;;;12.30;99.90;;;;;;4987355;28;20043;-85
2022/06/07 03:20:12;;;;;;;0.73;0.73;;;12.10;99.90;;;;;;4975231;28;20054;-79
2022/06/07 03:22:38;;;;;;;0.20;0.20;;;12.00;99.90;;;;;;4962841;28;20058;-79
2022/06/07 03:25:05;;;;;;;0.25;0.25;;;11.90;99.90;;;;;;4972240;28;20113;-79
2022/06/07 03:27:32;;;;;;;0.50;0.50;;;11.70;99.90;;;;;;4963485;28;20058;-80
2022/06/07 03:29:58;;;;;;;0.85;0.77;;;11.70;99.90;;;;;;4977837;28;20034;-79
2022/06/07 03:32:24;;;;;;;0.00;0.00;;;11.70;99.90;;;;;;4992481;28;20043;-79
2022/06/07 03:34:50;;;;;;;4.00;0.93;;;11.60;99.90;;;;;;4959689;28;20141;-80
2022/06/07 03:37:16;;;;;;;0.98;0.30;;;11.50;99.90;;;;;;4992563;28;20121;-86
2022/06/07 03:39:42;;;;;;;0.13;0.13;;;11.50;99.90;;;;;;4962616;28;20069;-86
2022/06/07 03:42:08;;;;;;;0.20;0.20;;;11.50;99.90;;;;;;4994638;28;20042;-87
2022/06/07 03:44:34;;;;;;;0.00;0.00;;;11.40;99.90;;;;;;4961284;28;20109;-88
2022/06/07 03:46:59;;;;;;;0.10;0.10;;;11.40;99.90;;;;;;4990534;28;20411;-87
2022/06/07 03:49:25;;;;;;;0.43;0.43;;;11.30;99.90;;;;;;4994750;28;20050;-88
2022/06/07 03:51:51;;;;;;;0.20;0.20;;;11.30;99.90;;;;;;4995445;28;20038;-85
2022/06/07 03:54:17;;;;;;;0.10;0.10;;;11.20;99.90;;;;;;5005274;28;20049;-87
2022/06/07 03:56:44;;;;;;;0.10;0.10;;;11.20;99.90;;;;;;4972259;28;20481;-88
2022/06/07 03:59:09;;;;;;;0.28;0.28;;;11.10;99.90;;;;;;4974950;28;20054;-88
2022/06/07 04:01:35;;;;;;;0.00;0.00;;;11.20;99.90;;;;;;4975888;28;20038;-87
2022/06/07 04:04:04;;;;;;;0.32;0.30;;;11.10;99.90;;;;;;4994547;28;20069;-86
2022/06/07 04:08:10;;;;;;;0.20;0.20;;;11.10;99.90;;;;;;4993854;28;20496;-87
2022/06/07 04:09:28;;;;;;;0.22;0.22;;;11.20;99.90;;;;;;4975303;28;20109;-92
2022/06/07 04:11:54;;;;;;;0.00;0.00;;;11.20;99.90;;;;;;4975894;28;20508;-93
2022/06/07 04:14:20;;;;;;;0.10;0.10;;;11.20;99.90;;;;;;4978408;28;20129;-91
2022/06/07 04:16:46;;;;;;;0.10;0.10;;;11.20;99.90;;;;;;4979082;28;20125;-91
2022/06/07 04:19:12;;;;;;;0.75;0.75;;;11.30;99.90;;;;;;4974484;28;20047;-92
2022/06/07 04:21:37;;;;;;;0.10;0.10;;;11.30;99.90;;;;;;4959002;28;20058;-92
2022/06/07 04:24:03;;;;;;;0.35;0.35;;;11.40;99.90;;;;;;4950155;28;20190;-92
2022/06/07 04:26:30;;;;;;;0.13;0.13;;;11.40;99.90;;;;;;4994996;28;20474;-82
2022/06/07 04:28:58;;;;;;;0.38;0.38;;;11.40;99.90;;;;;;4974569;28;20033;-82
2022/06/07 04:31:26;;;;;;;0.00;0.00;;;11.40;99.90;;;;;;4974455;28;20035;-82
2022/06/07 04:33:57;;;;;;;0.55;0.45;;;11.50;99.90;;;;;;4974993;28;20444;-82
2022/06/07 04:36:24;;;;;;;0.60;0.60;;;11.50;99.90;;;;;;4975238;28;20362;-82
2022/06/07 04:38:51;;;;;;;0.25;0.25;;;11.50;99.90;;;;;;4979426;28;20477;-82
2022/06/07 04:41:19;;;;;;;0.45;0.45;;;11.40;99.90;;;;;;4993814;28;20457;-82
2022/06/07 04:43:49;;;;;;;0.35;0.35;;;11.50;99.90;;;;;;4992762;28;20073;-82
2022/06/07 04:46:16;;;;;;;0.90;0.52;;;11.50;99.90;;;;;;4983994;28;20034;-83
2022/06/07 04:48:44;;;;;;;17.73;1.13;;;11.50;99.90;;;;;;4967870;28;20050;-82
2022/06/07 04:51:23;;;;;;;0.63;0.40;;;11.50;99.90;;;;;;4976435;28;20042;-82
2022/06/07 04:53:50;;;;;;;0.10;0.10;;;11.60;99.90;;;;;;4973903;28;20057;-82
2022/06/07 04:56:21;;;;;;;0.55;0.55;;;11.60;99.90;;;;;;4981251;28;20038;-82
2022/06/07 04:58:48;;;;;;;0.10;0.10;;;11.70;99.90;;;;;;4993286;28;20074;-92
2022/06/07 05:01:18;;;;;;;1.65;0.52;;;11.80;99.90;;;;;;4994084;28;20069;-91
2022/06/07 05:03:43;;;;;;;0.40;0.40;;;11.80;99.90;;;;;;4994411;28;20133;-92
2022/06/07 05:06:37;;;;;;;0.10;0.10;;;11.80;99.90;;;;;;4978036;28;20560;-93
2022/06/07 05:09:10;;;;;;;0.35;0.35;;;11.80;99.90;;;;;;4993529;28;20054;-92
2022/06/07 05:11:36;;;;;;;0.13;0.13;;;11.80;99.90;;;;;;4989175;28;20388;-92
2022/06/07 05:14:03;;;;;;;0.00;0.00;;;11.90;99.90;;;;;;4974933;28;20035;-93
2022/06/07 05:16:29;;;;;;;0.45;0.32;;;11.90;99.90;;;;;;4983440;28;20030;-80
2022/06/07 05:18:55;;;;;;;0.10;0.10;;;11.90;99.90;;;;;;4984638;28;20053;-80
2022/06/07 05:21:24;;;;;;;0.08;0.08;;;11.90;99.90;;;;;;4970557;28;20113;-80
2022/06/07 05:23:50;;;;;;;0.40;0.40;;;11.90;99.90;;;;;;4984994;28;20039;-80
2022/06/07 05:26:35;;;;;;;6.22;1.05;;;12.00;99.90;;;;;;4975163;28;20445;-80
2022/06/07 05:29:01;;;;;;;0.20;0.20;;;11.90;99.90;;;;;;4987078;28;20046;-79
2022/06/07 05:31:27;;;;;;;19.73;1.02;;;12.00;99.90;;;;;;4975078;28;20097;-80
2022/06/07 05:33:54;;;;;;;0.08;0.08;;;12.00;99.90;;;;;;4994678;28;20038;-92
2022/06/07 05:36:21;;;;;;;0.10;0.10;;;11.90;99.90;;;;;;4994609;28;20042;-90
2022/06/07 05:38:47;;;;;;;0.00;0.00;;;11.90;99.90;;;;;;4994705;28;20041;-92
2022/06/07 05:41:29;;;;;;;0.05;0.05;;;11.80;99.90;;;;;;4993792;28;20073;-93
2022/06/07 05:43:54;;;;;;;2.65;0.55;;;11.70;99.90;;;;;;4974717;28;20122;-93
2022/06/07 05:46:20;;;;;;;0.10;0.10;;;11.60;99.90;;;;;;4981026;28;20491;-92
2022/06/07 05:48:46;;;;;;;0.10;0.10;;;11.60;99.90;;;;;;4993560;28;20044;-92
2022/06/07 05:51:13;;;;;;;0.25;0.25;;;11.50;99.90;;;;;;4993831;28;20030;-87
2022/06/07 05:53:38;;;;;;;0.08;0.08;;;11.50;99.90;;;;;;4981724;28;20122;-88
2022/06/07 05:56:11;;;;;;;0.03;0.03;;;11.40;99.90;;;;;;4957501;28;20142;-88
2022/06/07 05:58:37;;;;;;;0.10;0.10;;;11.40;99.90;;;;;;4988397;28;20125;-87
2022/06/07 06:01:04;;;;;;;0.00;0.00;;;11.20;99.90;;;;;;4976516;28;20138;-87
2022/06/07 06:03:30;;;;;;;0.10;0.08;;;11.20;99.90;;;;;;4992755;28;20042;-87
2022/06/07 06:05:56;;;;;;;0.00;0.00;;;11.20;99.90;;;;;;4960542;28;20473;-88
2022/06/07 06:11:14;;;;;;;0.00;0.00;;;11.20;99.90;;;;;;4947570;28;20074;-86
2022/06/07 06:13:40;;;;;;;0.00;0.00;;;11.30;99.90;;;;;;4979890;28;20053;-88
2022/06/07 06:16:10;;;;;;;0.00;0.00;;;11.40;99.90;;;;;;4992779;28;20057;-87
2022/06/07 06:18:37;;;;;;;0.08;0.08;;;11.50;99.90;;;;;;4992564;28;20481;-87
2022/06/07 06:21:03;;;;;;;0.00;0.00;;;11.60;99.90;;;;;;4959812;28;20054;-86
2022/06/07 06:23:29;;;;;;;0.00;0.00;;;11.60;99.90;;;;;;4991515;28;20043;-82
2022/06/07 06:25:56;;;;;;;0.10;0.10;;;11.60;99.90;;;;;;4986417;28;20039;-82
2022/06/07 06:28:21;;;;;;;0.10;0.10;;;11.60;99.90;;;;;;4976138;28;20504;-82
2022/06/07 06:30:48;;;;;;;0.45;0.17;;;11.60;99.90;;;;;;4978160;28;20043;-82
2022/06/07 06:33:16;;;;;;;0.10;0.10;;;11.70;99.90;;;;;;4981430;28;20070;-82
2022/06/07 06:35:54;;;;;;;0.00;0.00;;;11.70;99.90;;;;;;4988609;28;20528;-83
2022/06/07 06:38:21;;;;;;;0.40;0.40;;;11.80;99.90;;;;;;4960497;28;20046;-82
2022/06/07 06:40:47;;;;;;;0.20;0.20;;;11.80;99.90;;;;;;4977179;28;20050;-90
2022/06/07 06:43:16;;;;;;;0.00;0.00;;;11.80;99.90;;;;;;4976658;28;20097;-91
2022/06/07 06:45:42;;;;;;;1.20;1.10;;;11.80;99.90;;;;;;4968907;28;20400;-90
2022/06/07 06:48:10;;;;;;;4.95;0.98;;;11.90;99.90;;;;;;4996015;28;20568;-90
2022/06/07 06:50:38;;;;;;;0.20;0.20;;;11.90;99.90;;;;;;4966256;28;20379;-91
2022/06/07 06:53:04;;;;;;;0.13;0.13;;;11.90;99.90;;;;;;4960665;28;20043;-91
2022/06/07 06:55:30;;;;;;;0.30;0.30;;;11.90;99.90;;;;;;4995597;28;20496;-91
2022/06/07 06:57:57;;;;;;;0.10;0.10;;;12.00;99.90;;;;;;4990098;28;20047;-90
2022/06/07 07:00:23;;;;;;;0.10;0.10;;;12.10;99.90;;;;;;4965753;28;20069;-90
2022/06/07 07:02:49;;;;;;;0.00;0.00;;;12.20;99.90;;;;;;4979951;28;20092;-91
2022/06/07 07:05:16;;;;;;;0.05;0.05;;;12.40;99.90;;;;;;4961287;28;20038;-91
2022/06/07 07:07:43;;;;;;;1.55;1.45;;;12.70;99.90;;;;;;4976174;28;20043;-91
2022/06/07 07:10:10;;;;;;;0.10;0.10;;;13.30;99.90;;;;;;4976523;28;20499;-91
2022/06/07 07:12:36;;;;;;;0.28;0.28;;;14.00;99.90;;;;;;4970312;28;20039;-82
2022/06/07 07:15:05;;;;;;;0.00;0.00;;;13.90;99.90;;;;;;4990880;28;20052;-82
2022/06/07 07:17:31;;;;;;;0.00;0.00;;;13.70;99.90;;;;;;4987354;28;20049;-82
2022/06/07 07:19:57;;;;;;;0.30;0.20;;;13.60;99.90;;;;;;4979021;28;20038;-82
2022/06/07 07:22:23;;;;;;;0.00;0.00;;;13.60;99.90;;;;;;4995756;28;20058;-82
2022/06/07 07:24:50;;;;;;;1.75;1.65;;;13.60;99.90;;;;;;4994995;28;20038;-82
2022/06/07 07:27:17;;;;;;;0.00;0.00;;;13.70;99.90;;;;;;4978161;28;20043;-82
2022/06/07 07:29:43;;;;;;;0.77;0.65;;;13.80;99.90;;;;;;4974338;28;20425;-82
2022/06/07 07:32:09;;;;;;;0.08;0.08;;;13.80;99.90;;;;;;4962533;28;20121;-82
2022/06/07 07:34:34;;;;;;;0.40;0.32;;;13.80;99.90;;;;;;4977002;28;20085;-83
2022/06/07 07:37:00;;;;;;;0.30;0.30;;;13.80;99.90;;;;;;4951684;28;20051;-82
2022/06/07 07:39:26;;;;;;;0.10;0.10;;;13.90;99.90;;;;;;4992562;28;20123;-82
2022/06/07 07:41:53;;;;;;;0.20;0.20;;;13.90;99.90;;;;;;4978014;28;20050;-82
2022/06/07 07:44:21;;;;;;;0.25;0.25;;;13.90;99.90;;;;;;4994605;28;20081;-81
2022/06/07 07:46:48;;;;;;;0.20;0.20;;;14.00;99.90;;;;;;4995668;28;20127;-85
2022/06/07 07:49:15;;;;;;;0.00;0.00;;;14.00;99.90;;;;;;5002764;23;20165;-81
2022/06/07 07:51:44;;;;;;;0.77;0.73;;;13.90;99.90;;;;;;5011542;28;20038;-81
2022/06/07 07:54:12;;;;;;;0.55;0.55;;;13.90;99.90;;;;;;4992446;28;20077;-81
2022/06/07 07:56:38;;;;;;;0.00;0.00;;;14.00;99.90;;;;;;5025553;28;20036;-81
2022/06/07 07:59:05;;;;;;;3.42;1.05;;;14.00;99.90;;;;;;5017573;28;20045;-81
2022/06/07 08:01:31;;;;;;;0.10;0.10;;;14.00;99.90;;;;;;5017097;28;20531;-81
2022/06/07 08:03:59;;;;;;;0.10;0.10;;;13.90;99.90;;;;;;4998629;28;20120;-91
2022/06/07 08:06:28;;;;;;;0.00;0.00;;;13.80;99.90;;;;;;5014372;28;20046;-90
2022/06/07 08:08:56;;;;;;;0.00;0.00;;;13.80;99.90;;;;;;5014018;28;20037;-90
2022/06/07 08:11:25;;;;;;;0.05;0.05;;;13.80;99.90;;;;;;5013889;28;20117;-92
2022/06/07 08:13:51;;;;;;;0.10;0.10;;;13.70;99.90;;;;;;5014027;28;20081;-89
2022/06/07 08:16:18;;;;;;;0.00;0.00;;;13.80;99.90;;;;;;4994542;28;20081;-92
2022/06/07 08:18:45;;;;;;;0.00;0.00;;;13.90;99.90;;;;;;5003915;28;20073;-91
2022/06/07 08:21:15;;;;;;;0.20;0.20;;;14.10;99.90;;;;;;5013867;28;20049;-81
2022/06/07 08:23:41;;;;;;;1.08;0.35;;;14.20;99.90;;;;;;4997434;28;20110;-81
2022/06/07 08:26:08;;;;;;;0.10;0.10;;;14.30;99.90;;;;;;5013998;28;20042;-81
2022/06/07 08:28:35;;;;;;;0.35;0.35;;;14.30;99.90;;;;;;5013485;28;20506;-81
2022/06/07 08:31:02;;;;;;;0.00;0.00;;;14.20;99.90;;;;;;4996329;28;20042;-81
2022/06/07 08:39:01;;;;;;;0.30;0.30;;;14.20;99.90;;;;;;5012515;28;20508;-81
2022/06/07 08:41:33;;;;;;;0.10;0.10;;;14.40;99.90;;;;;;4996896;28;20045;-82
2022/06/07 08:44:07;;;;;;;0.10;0.10;;;14.40;99.90;;;;;;4993850;28;20062;-82
2022/06/07 08:46:36;;;;;;;0.00;0.00;;;14.60;99.90;;;;;;5010380;28;20117;-81
2022/06/07 08:49:03;;;;;;;0.00;0.00;;;14.70;99.90;;;;;;5010993;28;20084;-82
2022/06/07 08:51:34;;;;;;;1.27;0.25;;;15.00;99.90;;;;;;4994017;28;20058;-83
2022/06/07 08:54:02;;;;;;;0.00;0.00;;;15.80;99.90;;;;;;4991167;28;20042;-86
2022/06/07 08:56:33;;;;;;;0.00;0.00;;;16.40;99.90;;;;;;4999108;28;20168;-86
2022/06/07 08:59:09;;;;;;;0.10;0.10;;;16.80;99.90;;;;;;4980829;28;20192;-86
2022/06/07 09:02:04;;;;;;;0.10;0.10;;;17.00;99.90;;;;;;4996824;28;20091;-86
2022/06/07 09:04:33;;;;;;;0.10;0.10;;;17.10;99.90;;;;;;5009647;28;20073;-85
2022/06/07 09:07:03;;;;;;;0.00;0.00;;;17.10;99.90;;;;;;4993784;28;20038;-86
2022/06/07 09:12:37;;;;;;;0.10;0.10;;;16.50;99.90;;;;;;5012061;28;20076;-79
2022/06/07 09:15:09;;;;;;;0.10;0.10;;;15.90;99.90;;;;;;5005082;28;20050;-79
2022/06/07 09:17:48;;;;;;;0.05;0.05;;;15.50;99.90;;;;;;5012622;28;20034;-79
2022/06/07 09:20:22;;;;;;;0.00;0.00;;;15.40;99.90;;;;;;5005786;28;20041;-79
2022/06/07 09:22:56;;;;;;;0.10;0.10;;;15.00;99.90;;;;;;5017921;28;20050;-79
2022/06/07 09:25:40;;;;;;;0.00;0.00;;;14.90;99.90;;;;;;5006281;28;20033;-79
2022/06/07 09:28:12;;;;;;;0.28;0.10;;;14.80;99.90;;;;;;5007833;28;20066;-82
2022/06/07 09:30:47;;;;;;;0.13;0.13;;;14.40;99.90;;;;;;5005219;28;20042;-82
2022/06/07 09:33:25;;;;;;;1.10;1.10;;;14.40;99.90;;;;;;4991557;28;20047;-82
2022/06/07 09:35:54;;;;;;;0.10;0.10;;;14.30;99.90;;;;;;4986692;28;20050;-82
2022/06/07 09:38:45;;;;;;;0.00;0.00;;;14.30;99.90;;;;;;4976664;28;20038;-82
2022/06/07 09:41:37;;;;;;;0.00;0.00;;;14.60;99.90;;;;;;4996088;28;20494;-82
2022/06/07 09:44:35;;;;;;;0.00;0.00;;;15.30;99.90;;;;;;5005010;28;20070;-79
2022/06/07 09:47:15;;;;;;;0.00;0.00;;;15.80;99.90;;;;;;5011307;28;20508;-79
2022/06/07 09:49:45;;;;;;;0.00;0.00;;;15.90;99.90;;;;;;5008098;28;20062;-80
2022/06/07 09:52:14;;;;;;;0.00;0.00;;;15.80;99.90;;;;;;5007502;28;20052;-80
2022/06/07 09:54:43;;;;;;;0.00;0.00;;;15.90;99.90;;;;;;5003790;28;20177;-79
2022/06/07 09:57:21;;;;;;;0.40;0.40;;;16.00;99.90;;;;;;4999954;28;20052;-79
2022/06/07 10:00:26;;;;;;;0.25;0.25;;;16.40;99.90;;;;;;5006199;28;20120;-93
2022/06/07 10:02:53;;;;;;;0.05;0.05;;;16.90;99.90;;;;;;5014642;28;20497;-91
2022/06/07 10:05:42;;;;;;;0.10;0.10;;;17.30;99.90;;;;;;5015641;28;20396;-92
2022/06/07 10:08:36;;;;;;;0.10;0.10;;;17.60;99.90;;;;;;5013162;28;20042;-92
2022/06/07 10:11:17;;;;;;;0.60;0.30;;;17.70;99.90;;;;;;4998048;28;20570;-92
2022/06/07 10:14:14;;;;;;;0.38;0.38;;;17.40;99.90;;;;;;5017346;28;20041;-91
2022/06/07 10:17:11;;;;;;;0.00;0.00;;;17.00;99.90;;;;;;5005756;28;20129;-82
2022/06/07 10:19:47;;;;;;;0.00;0.00;;;16.60;99.90;;;;;;5003869;28;20070;-82
2022/06/07 10:22:16;;;;;;;1.85;0.85;;;16.50;99.90;;;;;;5000262;28;20033;-82
2022/06/07 10:24:42;;;;;;;0.65;0.65;;;16.40;99.90;;;;;;5003329;28;20050;-82
2022/06/07 10:27:23;;;;;;;0.00;0.00;;;16.20;99.90;;;;;;4999703;28;20040;-82
2022/06/07 10:30:07;;;;;;;0.10;0.10;;;16.20;99.90;;;;;;5007574;28;20042;-82
2022/06/07 10:32:33;;;;;;;0.00;0.00;;;16.20;99.90;;;;;;4996764;28;20386;-85
2022/06/07 10:35:10;;;;;;;0.35;0.35;;;16.20;99.90;;;;;;5014726;28;20041;-86
2022/06/07 10:38:00;;;;;;;0.00;0.00;;;16.30;99.90;;;;;;5018379;28;20041;-86
2022/06/07 10:40:29;;;;;;;0.30;0.30;;;16.30;99.90;;;;;;4999898;28;20100;-85
2022/06/07 10:43:04;;;;;;;0.05;0.05;;;16.40;99.90;;;;;;5024602;28;20130;-85
2022/06/07 10:45:37;;;;;;;0.20;0.20;;;16.50;99.90;;;;;;4999991;28;20526;-85
2022/06/07 10:48:21;;;;;;;0.00;0.00;;;16.40;99.90;;;;;;4999434;28;20041;-85
2022/06/07 10:50:53;;;;;;;0.05;0.05;;;16.40;99.90;;;;;;5015406;28;20415;-82
2022/06/07 10:53:27;;;;;;;0.00;0.00;;;16.30;99.90;;;;;;5015411;28;20121;-82
2022/06/07 10:56:02;;;;;;;0.00;0.00;;;16.00;99.90;;;;;;5015677;28;20052;-82
2022/06/07 10:58:50;;;;;;;0.00;0.00;;;16.10;99.90;;;;;;5015532;28;20872;-82
2022/06/07 11:01:24;;;;;;;0.00;0.00;;;16.10;99.90;;;;;;5015396;28;20289;-82
2022/06/07 11:04:11;;;;;;;0.03;0.03;;;16.20;99.90;;;;;;4998677;28;20041;-82
2022/06/07 11:09:33;;;;;;;0.00;0.00;;;16.10;99.90;;;;;;5023471;28;20041;-79
2022/06/07 11:12:06;;;;;;;0.40;0.32;;;16.20;99.90;;;;;;4996878;28;20088;-80
2022/06/07 11:14:49;;;;;;;0.00;0.00;;;16.50;99.90;;;;;;4981488;28;20068;-79
2022/06/07 11:17:52;;;;;;;0.00;0.00;;;17.00;99.90;;;;;;5009484;28;20038;-79
2022/06/07 11:20:23;;;;;;;0.73;0.73;;;17.30;99.90;;;;;;5011674;28;20396;-80
2022/06/07 11:23:05;;;;;;;0.00;0.00;;;17.40;99.90;;;;;;4998345;28;20502;-85
2022/06/07 11:25:33;;;;;;;0.08;0.08;;;17.40;99.90;;;;;;5013556;28;20046;-85
2022/06/07 11:28:06;;;;;;;0.00;0.00;;;17.40;99.90;;;;;;5017286;28;20037;-85
2022/06/07 11:30:37;;;;;;;0.70;0.70;;;17.60;99.90;;;;;;5029852;28;20097;-84
2022/06/07 11:33:06;;;;;;;0.00;0.00;;;17.70;99.90;;;;;;4998739;28;20040;-85
2022/06/07 11:35:46;;;;;;;0.22;0.22;;;17.80;99.90;;;;;;4998663;28;20129;-85
2022/06/07 11:38:17;;;;;;;0.13;0.13;;;17.90;99.90;;;;;;5009449;28;20111;-86
2022/06/07 11:40:45;;;;;;;0.00;0.00;;;18.10;99.90;;;;;;5008393;28;20046;-80
2022/06/07 11:43:49;;;;;;;0.88;0.85;;;19.00;99.90;;;;;;4997922;28;20046;-80
2022/06/07 11:46:32;;;;;;;0.10;0.10;;;19.10;99.90;;;;;;5012002;28;20030;-80
2022/06/07 11:49:27;;;;;;;0.00;0.00;;;19.10;99.90;;;;;;5002739;28;20037;-80
2022/06/07 11:52:13;;;;;;;0.10;0.10;;;18.70;99.90;;;;;;4983398;28;20492;-79
2022/06/07 11:54:51;;;;;;;0.05;0.05;;;18.30;99.90;;;;;;4998304;28;20041;-79
2022/06/07 11:57:32;;;;;;;0.22;0.20;;;18.20;99.90;;;;;;4997276;28;20044;-92
2022/06/07 12:00:22;;;;;;;0.10;0.10;;;18.10;99.90;;;;;;5014282;28;20100;-90
2022/06/07 12:02:56;;;;;;;0.10;0.10;;;18.00;99.90;;;;;;4990873;28;20089;-91
2022/06/07 12:05:28;;;;;;;0.15;0.15;;;18.10;99.90;;;;;;4982633;28;20037;-90
2022/06/07 12:07:57;;;;;;;0.10;0.10;;;18.30;99.90;;;;;;4994431;28;20080;-92
2022/06/07 12:10:31;;;;;;;0.00;0.00;;;18.30;99.90;;;;;;4988983;28;20045;-92
2022/06/07 12:14:02;;;;;;;0.00;0.00;;;18.20;99.90;;;;;;4997804;28;20391;-91
2022/06/07 12:16:13;;;;;;;0.20;0.20;;;18.60;99.90;;;;;;5023386;28;20104;-90
2022/06/07 12:18:39;;;;;;;0.10;0.10;;;18.90;99.90;;;;;;5013929;28;20046;-80
2022/06/07 12:21:07;;;;;;;0.20;0.20;;;18.80;99.90;;;;;;4980838;28;20056;-79
2022/06/07 12:23:37;;;;;;;0.10;0.10;;;18.60;99.90;;;;;;5003747;28;20042;-79
2022/06/07 12:26:19;;;;;;;0.00;0.00;;;18.40;99.90;;;;;;5011972;28;20049;-79
2022/06/07 12:28:55;;;;;;;0.80;0.80;;;18.20;99.90;;;;;;5008437;28;20034;-79
2022/06/07 12:31:37;;;;;;;0.10;0.10;;;18.20;99.90;;;;;;5012917;28;20044;-79
2022/06/07 12:34:19;;;;;;;0.28;0.28;;;18.50;99.90;;;;;;5009056;28;20056;-79
2022/06/07 12:37:10;;;;;;;0.00;0.00;;;19.10;99.90;;;;;;5009325;28;20080;-79
2022/06/07 12:39:49;;;;;;;0.00;0.00;;;19.40;99.90;;;;;;5011534;28;20141;-79
2022/06/07 12:42:17;;;;;;;0.10;0.10;;;19.30;99.90;;;;;;5011871;28;20042;-79
2022/06/07 12:45:18;;;;;;;0.32;0.32;;;19.00;99.90;;;;;;5029296;28;20042;-79
2022/06/07 12:47:44;;;;;;;0.00;0.00;;;18.80;99.90;;;;;;5026264;28;20073;-82
2022/06/07 12:50:24;;;;;;;0.10;0.10;;;18.60;99.90;;;;;;5033263;28;20103;-82
2022/06/07 12:52:52;;;;;;;0.75;0.75;;;18.50;99.90;;;;;;5025725;28;20050;-82
2022/06/07 12:55:39;;;;;;;0.08;0.08;;;18.60;99.90;;;;;;5013518;28;20490;-82
2022/06/07 12:58:07;;;;;;;;;;;19.00;99.90;;;;;;4997054;28;20127;-82
2022/06/07 13:00:44;;;;;;;0.00;0.00;;;18.90;99.90;;;;;;5011440;28;19971;-82
2022/06/07 13:03:33;;;;;;;0.00;0.00;;;19.00;99.90;;;;;;5007109;28;20498;-85
2022/06/07 13:06:15;;;;;;;0.32;0.32;;;19.20;99.90;;;;;;4995866;28;20129;-87
2022/06/07 13:08:42;;;;;;;0.10;0.10;;;19.50;99.90;;;;;;5010510;28;20096;-86
2022/06/07 13:11:15;;;;;;;0.15;0.15;;;19.30;99.90;;;;;;4995837;28;20042;-85
2022/06/07 13:13:44;;;;;;;0.10;0.10;;;19.20;99.90;;;;;;4995183;28;20037;-86
2022/06/07 13:16:34;;;;;;;0.10;0.10;;;19.10;99.90;;;;;;4996890;28;20045;-86
2022/06/07 13:19:08;;;;;;;0.00;0.00;;;19.40;99.90;;;;;;5005739;28;20428;-80
2022/06/07 13:21:39;;;;;;;0.15;0.10;;;19.50;99.90;;;;;;4994982;28;20369;-79
2022/06/07 13:24:06;;;;;;;0.17;0.17;;;19.20;99.90;;;;;;5008805;28;20034;-80
2022/06/07 13:26:42;;;;;;;0.45;0.40;;;18.90;99.90;;;;;;5011690;28;20084;-79
2022/06/07 13:29:17;;;;;;;1.45;0.57;;;18.80;99.90;;;;;;5008938;28;20487;-80